createdAt,value
2019-03-03T00:01:16.094Z,18.98
2019-03-03T00:04:36.249Z,15.25
2019-03-03T00:07:07.955Z,14.00
2019-03-03T00:09:42.854Z,25.65
2019-03-03T00:12:24.326Z,15.83
2019-03-03T00:14:56.216Z,17.50
2019-03-03T00:17:27.002Z,12.95
2019-03-03T00:20:03.972Z,18.17
2019-03-03T00:22:42.886Z,14.68
2019-03-03T00:25:13.585Z,16.45
2019-03-03T00:27:43.642Z,11.83
2019-03-03T00:30:22.607Z,14.33
2019-03-03T00:35:38.934Z,15.93
2019-03-03T00:38:29.943Z,19.98
2019-03-03T00:41:36.872Z,15.88
2019-03-03T00:48:10.704Z,19.67
2019-03-03T00:51:03.491Z,21.50
2019-03-03T00:54:08.187Z,15.70
2019-03-03T00:56:57.710Z,7.90
2019-03-03T00:59:55.901Z,10.82
2019-03-03T01:02:54.157Z,11.43
2019-03-03T01:05:38.046Z,10.53
2019-03-03T01:08:36.311Z,18.45
2019-03-03T01:11:18.618Z,17.10
2019-03-03T01:14:22.805Z,24.67
2019-03-03T01:17:10.681Z,13.55
2019-03-03T01:20:13.656Z,16.65
2019-03-03T01:23:09.418Z,24.82
2019-03-03T01:25:55.209Z,13.80
2019-03-03T01:28:22.769Z,18.23
2019-03-03T01:30:53.405Z,22.73
2019-03-03T01:33:30.581Z,15.45
2019-03-03T01:36:01.618Z,14.98
2019-03-03T01:38:34.953Z,27.00
2019-03-03T01:41:08.510Z,13.15
2019-03-03T01:43:38.188Z,15.95
2019-03-03T01:46:10.025Z,14.33
2019-03-03T01:51:41.900Z,15.72
2019-03-03T01:54:12.133Z,11.30
2019-03-03T01:56:42.364Z,9.88
2019-03-03T01:59:12.247Z,17.42
2019-03-03T02:01:42.226Z,22.93
2019-03-03T02:04:12.002Z,16.52
2019-03-03T02:06:41.908Z,18.17
2019-03-03T02:09:12.581Z,16.23
2019-03-03T02:11:42.070Z,14.68
2019-03-03T02:14:11.761Z,10.98
2019-03-03T02:16:41.497Z,18.25
2019-03-03T02:19:11.406Z,15.32
2019-03-03T02:21:41.229Z,17.87
2019-03-03T02:24:11.280Z,20.95
2019-03-03T02:26:41.218Z,20.82
2019-03-03T02:29:10.877Z,19.92
2019-03-03T02:31:40.489Z,14.20
2019-03-03T02:34:13.345Z,30.15
2019-03-03T02:36:43.566Z,11.12
2019-03-03T02:39:37.542Z,15.32
2019-03-03T02:42:07.933Z,15.38
2019-03-03T02:44:40.704Z,21.42
2019-03-03T02:47:13.679Z,9.98
2019-03-03T02:49:43.567Z,14.18
2019-03-03T02:52:13.685Z,10.60
2019-03-03T02:54:54.843Z,20.95
2019-03-03T02:57:25.001Z,20.82
2019-03-03T02:59:55.281Z,12.60
2019-03-03T03:02:45.856Z,15.38
2019-03-03T03:05:19.319Z,22.82
2019-03-03T03:08:03.029Z,18.12
2019-03-03T03:10:47.192Z,17.20
2019-03-03T03:13:49.418Z,17.55
2019-03-03T03:19:48.632Z,16.35
2019-03-03T03:22:55.333Z,20.57
2019-03-03T03:28:58.127Z,17.52
2019-03-03T03:32:06.343Z,15.43
2019-03-03T03:34:46.823Z,12.63
2019-03-03T03:37:24.464Z,11.80
2019-03-03T03:40:17.288Z,25.32
2019-03-03T03:43:12.483Z,9.45
2019-03-03T03:46:03.964Z,15.00
2019-03-03T03:49:01.339Z,9.20
2019-03-03T03:51:40.956Z,7.85
2019-03-03T03:54:51.971Z,10.15
2019-03-03T03:57:56.085Z,12.90
2019-03-03T04:06:13.694Z,13.28
2019-03-03T04:07:35.843Z,18.35
2019-03-03T04:10:12.270Z,20.65
2019-03-03T04:13:19.492Z,14.70
2019-03-03T04:16:08.254Z,14.28
2019-03-03T04:18:58.847Z,9.60
2019-03-03T04:21:48.461Z,9.73
2019-03-03T04:24:39.233Z,11.35
2019-03-03T04:27:18.488Z,13.25
2019-03-03T04:30:10.392Z,26.40
2019-03-03T04:33:02.821Z,17.48
2019-03-03T04:39:18.357Z,9.48
2019-03-03T04:42:07.693Z,21.02
2019-03-03T04:44:57.087Z,14.20
2019-03-03T04:47:53.943Z,19.27
2019-03-03T04:51:12.075Z,10.43
2019-03-03T04:53:55.683Z,18.75
2019-03-03T04:57:28.951Z,22.40
2019-03-03T05:00:33.915Z,13.72
2019-03-03T05:03:25.843Z,17.25
2019-03-03T05:06:05.588Z,15.38
2019-03-03T05:08:46.640Z,19.42
2019-03-03T05:18:08.644Z,20.70
2019-03-03T05:20:58.208Z,28.60
2019-03-03T05:23:30.474Z,23.27
2019-03-03T05:26:41.155Z,20.62
2019-03-03T05:29:59.712Z,15.18
2019-03-03T05:32:34.750Z,20.70
2019-03-03T05:35:06.894Z,17.52
2019-03-03T05:37:40.489Z,20.00
2019-03-03T05:47:38.172Z,20.65
2019-03-03T05:50:09.656Z,23.25
2019-03-03T05:53:06.241Z,22.05
2019-03-03T05:55:46.038Z,19.85
2019-03-03T05:58:38.698Z,20.50
2019-03-03T06:01:20.791Z,22.85
2019-03-03T06:04:38.048Z,14.05
2019-03-03T06:07:45.106Z,20.60
2019-03-03T06:13:34.921Z,22.20
2019-03-03T06:16:05.732Z,22.15
2019-03-03T06:18:40.130Z,19.35
2019-03-03T06:24:42.143Z,20.92
2019-03-03T06:27:45.310Z,14.13
2019-03-03T06:30:15.476Z,19.98
2019-03-03T06:32:45.115Z,23.85
2019-03-03T06:35:14.811Z,20.37
2019-03-03T06:37:44.878Z,27.13
2019-03-03T06:40:14.675Z,18.95
2019-03-03T06:42:44.518Z,17.87
2019-03-03T06:45:14.500Z,24.18
2019-03-03T06:47:44.276Z,16.67
2019-03-03T06:50:14.122Z,19.67
2019-03-03T06:52:43.612Z,13.18
2019-03-03T06:55:13.314Z,22.85
2019-03-03T06:57:43.083Z,23.25
2019-03-03T07:00:15.722Z,25.52
2019-03-03T07:02:45.475Z,17.45
2019-03-03T07:05:15.116Z,20.45
2019-03-03T07:07:44.746Z,21.55
2019-03-03T07:10:15.068Z,20.17
2019-03-03T07:12:44.879Z,16.70
2019-03-03T07:15:16.015Z,15.95
2019-03-03T07:17:45.829Z,31.48
2019-03-03T07:20:15.601Z,22.55
2019-03-03T07:22:45.176Z,29.90
2019-03-03T07:25:15.175Z,15.88
2019-03-03T07:27:44.745Z,32.20
2019-03-03T07:30:15.002Z,26.57
2019-03-03T07:33:09.270Z,24.75
2019-03-03T07:35:39.085Z,23.45
2019-03-03T07:38:08.517Z,17.45
2019-03-03T07:40:38.278Z,27.77
2019-03-03T07:43:07.917Z,34.85
2019-03-03T07:45:38.324Z,21.80
2019-03-03T07:48:07.835Z,26.25
2019-03-03T07:50:37.374Z,25.32
2019-03-03T07:53:07.315Z,19.15
2019-03-03T07:55:36.544Z,18.05
2019-03-03T07:58:06.053Z,30.20
2019-03-03T08:00:35.698Z,20.65
2019-03-03T08:03:05.692Z,14.45
2019-03-03T08:05:35.278Z,17.02
2019-03-03T08:08:04.880Z,29.72
2019-03-03T08:10:34.485Z,22.32
2019-03-03T08:13:09.308Z,24.80
2019-03-03T08:15:35.514Z,23.07
2019-03-03T08:18:05.150Z,21.75
2019-03-03T08:20:35.280Z,11.68
2019-03-03T08:23:04.926Z,14.90
2019-03-03T08:25:34.561Z,26.85
2019-03-03T08:28:04.491Z,21.80
2019-03-03T08:30:34.675Z,14.05
2019-03-03T08:33:04.730Z,22.73
2019-03-03T08:35:34.797Z,31.07
2019-03-03T08:38:04.678Z,22.48
2019-03-03T08:40:34.251Z,15.60
2019-03-03T08:43:12.065Z,22.80
2019-03-03T08:46:13.125Z,16.23
2019-03-03T08:48:59.884Z,21.80
2019-03-03T08:51:40.373Z,24.67
2019-03-03T08:54:28.132Z,16.23
2019-03-03T08:57:16.732Z,27.85
2019-03-03T09:00:05.567Z,16.93
2019-03-03T09:02:57.122Z,22.30
2019-03-03T09:05:45.584Z,25.75
2019-03-03T09:08:40.487Z,15.20
2019-03-03T09:11:32.307Z,17.73
2019-03-03T09:14:12.769Z,23.90
2019-03-03T09:16:55.564Z,20.27
2019-03-03T09:19:42.595Z,34.33
2019-03-03T09:22:33.963Z,27.75
2019-03-03T09:25:23.212Z,23.30
2019-03-03T09:28:02.757Z,25.72
2019-03-03T09:30:42.770Z,25.20
2019-03-03T09:33:26.812Z,21.80
2019-03-03T09:36:04.435Z,23.98
2019-03-03T09:39:08.216Z,27.93
2019-03-03T09:41:50.762Z,28.67
2019-03-03T09:44:37.957Z,24.63
2019-03-03T09:47:29.868Z,28.38
2019-03-03T09:50:16.574Z,24.15
2019-03-03T09:53:23.967Z,29.37
2019-03-03T09:56:12.823Z,26.62
2019-03-03T09:59:00.663Z,26.45
2019-03-03T10:01:47.999Z,38.08
2019-03-03T10:04:23.828Z,28.85
2019-03-03T10:07:13.568Z,21.17
2019-03-03T10:10:08.096Z,19.35
2019-03-03T10:12:49.171Z,21.42
2019-03-03T10:15:25.214Z,26.23
2019-03-03T10:18:13.677Z,22.37
2019-03-03T10:21:03.243Z,20.12
2019-03-03T10:23:50.468Z,24.37
2019-03-03T10:26:39.328Z,20.70
2019-03-03T10:29:34.054Z,18.62
2019-03-03T10:32:21.751Z,19.70
2019-03-03T10:34:57.238Z,13.40
2019-03-03T10:37:47.488Z,15.43
2019-03-03T10:40:35.013Z,14.60
2019-03-03T10:43:26.427Z,14.50
2019-03-03T10:46:30.649Z,10.85
2019-03-03T10:49:06.115Z,17.10
2019-03-03T10:52:06.924Z,11.25
2019-03-03T10:54:44.928Z,12.63
2019-03-03T10:57:30.386Z,15.65
2019-03-03T11:00:17.834Z,18.27
2019-03-03T11:03:06.693Z,18.60
2019-03-03T11:05:56.468Z,13.45
2019-03-03T11:08:44.045Z,9.48
2019-03-03T11:11:32.134Z,11.45
2019-03-03T11:14:19.193Z,13.13
2019-03-03T11:16:58.252Z,15.53
2019-03-03T11:19:47.237Z,18.20
2019-03-03T11:22:38.856Z,21.20
2019-03-03T11:25:27.917Z,10.40
2019-03-03T11:28:03.119Z,15.35
2019-03-03T11:31:03.896Z,10.90
2019-03-03T11:33:45.688Z,10.68
2019-03-03T11:36:29.215Z,9.50
2019-03-03T11:39:16.612Z,7.28
2019-03-03T11:42:00.788Z,13.72
2019-03-03T11:44:43.852Z,8.05
2019-03-03T11:47:31.536Z,6.80
2019-03-03T11:50:35.343Z,7.30
2019-03-03T11:53:30.140Z,13.45
2019-03-03T11:56:11.112Z,8.28
2019-03-03T11:58:51.293Z,7.47
2019-03-03T12:01:34.288Z,12.58
2019-03-03T12:04:17.452Z,8.60
2019-03-03T12:06:57.156Z,8.03
2019-03-03T12:09:48.980Z,10.23
2019-03-03T12:12:36.300Z,6.28
2019-03-03T12:15:11.873Z,7.72
2019-03-03T12:17:58.859Z,9.15
2019-03-03T12:20:37.375Z,6.60
2019-03-03T12:23:19.784Z,7.53
2019-03-03T12:26:08.742Z,7.67
2019-03-03T12:29:13.059Z,8.45
2019-03-03T12:32:00.242Z,5.78
2019-03-03T12:34:52.313Z,7.40
2019-03-03T12:37:35.880Z,9.10
2019-03-03T12:40:23.985Z,7.72
2019-03-03T12:43:11.816Z,8.08
2019-03-03T12:46:00.712Z,7.40
2019-03-03T12:48:52.432Z,13.22
2019-03-03T12:51:43.302Z,12.90
2019-03-03T12:54:28.987Z,8.83
2019-03-03T12:57:18.660Z,6.95
2019-03-03T12:59:57.406Z,7.33
2019-03-03T13:02:46.011Z,6.75
2019-03-03T13:05:40.521Z,5.12
2019-03-03T13:08:41.667Z,21.17
2019-03-03T13:11:36.776Z,11.63
2019-03-03T13:14:25.251Z,9.60
2019-03-03T13:17:29.028Z,11.90
2019-03-03T13:20:12.458Z,13.20
2019-03-03T13:23:00.493Z,9.50
2019-03-03T13:25:40.134Z,14.03
2019-03-03T13:28:27.116Z,9.38
2019-03-03T13:31:06.833Z,10.70
2019-03-03T13:34:01.797Z,15.43
2019-03-03T13:37:08.369Z,9.13
2019-03-03T13:39:59.677Z,11.22
2019-03-03T13:42:56.875Z,8.43
2019-03-03T13:45:28.551Z,12.07
2019-03-03T13:47:58.293Z,6.85
2019-03-03T13:50:28.192Z,15.63
2019-03-03T13:52:58.018Z,16.05
2019-03-03T13:55:27.836Z,9.85
2019-03-03T13:57:57.834Z,13.10
2019-03-03T14:00:27.553Z,12.30
2019-03-03T14:02:57.354Z,12.40
2019-03-03T14:05:27.234Z,17.10
2019-03-03T14:07:57.088Z,15.88
2019-03-03T14:10:26.634Z,18.52
2019-03-03T14:12:56.394Z,24.45
2019-03-03T14:15:26.032Z,21.80
2019-03-03T14:17:57.859Z,23.60
2019-03-03T14:20:27.062Z,16.95
2019-03-03T14:22:56.994Z,18.23
2019-03-03T14:25:26.636Z,16.93
2019-03-03T14:27:56.750Z,22.13
2019-03-03T14:30:27.114Z,17.12
2019-03-03T14:32:56.750Z,17.65
2019-03-03T14:35:26.447Z,22.07
2019-03-03T14:37:56.395Z,20.32
2019-03-03T14:40:25.957Z,22.80
2019-03-03T14:42:55.666Z,23.50
2019-03-03T14:45:25.432Z,24.98
2019-03-03T14:47:54.985Z,15.03
2019-03-03T14:50:24.689Z,26.48
2019-03-03T14:52:54.122Z,30.32
2019-03-03T14:55:23.802Z,24.67
2019-03-03T14:57:53.530Z,21.70
2019-03-03T15:00:30.833Z,18.57
2019-03-03T15:03:02.034Z,14.35
2019-03-03T15:05:32.149Z,13.93
2019-03-03T15:08:02.031Z,17.77
2019-03-03T15:10:31.609Z,19.90
2019-03-03T15:13:01.679Z,15.65
2019-03-03T15:15:32.515Z,20.27
2019-03-03T15:18:02.270Z,21.93
2019-03-03T15:20:32.159Z,21.05
2019-03-03T15:23:01.912Z,17.37
2019-03-03T15:25:31.967Z,20.00
2019-03-03T15:28:01.801Z,13.78
2019-03-03T15:30:31.430Z,25.15
2019-03-03T15:33:00.952Z,19.27
2019-03-03T15:35:30.806Z,17.17
2019-03-03T15:38:00.593Z,20.95
2019-03-03T15:40:30.830Z,25.82
2019-03-03T15:43:00.592Z,20.02
2019-03-03T15:45:30.350Z,10.95
2019-03-03T15:47:59.928Z,16.82
2019-03-03T15:50:29.513Z,17.10
2019-03-03T15:52:59.275Z,20.05
2019-03-03T15:55:28.968Z,22.45
2019-03-03T15:57:58.597Z,15.90
2019-03-03T16:00:29.389Z,22.17
2019-03-03T16:02:58.911Z,10.45
2019-03-03T16:05:28.363Z,16.23
2019-03-03T16:07:58.008Z,26.90
2019-03-03T16:10:27.650Z,10.98
2019-03-03T16:12:57.474Z,15.95
2019-03-03T16:15:27.063Z,15.23
2019-03-03T16:17:56.771Z,22.75
2019-03-03T16:20:26.389Z,16.57
2019-03-03T16:22:56.273Z,10.23
2019-03-03T16:25:26.030Z,17.57
2019-03-03T16:27:55.506Z,13.22
2019-03-03T16:30:25.631Z,16.55
2019-03-03T16:32:55.671Z,15.65
2019-03-03T16:35:25.435Z,20.57
2019-03-03T16:37:55.259Z,26.83
2019-03-03T16:40:25.068Z,17.75
2019-03-03T16:42:54.951Z,14.10
2019-03-03T16:45:24.996Z,16.02
2019-03-03T16:47:54.708Z,15.83
2019-03-03T16:50:24.517Z,26.73
2019-03-03T16:52:54.051Z,11.50
2019-03-03T16:55:24.110Z,14.33
2019-03-03T16:57:53.448Z,14.23
2019-03-03T17:00:23.554Z,21.10
2019-03-03T17:02:53.389Z,16.97
2019-03-03T17:05:23.029Z,23.67
2019-03-03T17:07:53.691Z,28.40
2019-03-03T17:10:23.921Z,23.03
2019-03-03T17:12:54.392Z,15.50
2019-03-03T17:15:24.716Z,22.23
2019-03-03T17:18:00.876Z,16.10
2019-03-03T17:20:30.745Z,18.63
2019-03-03T17:23:01.886Z,15.30
2019-03-03T17:25:32.057Z,19.07
2019-03-03T17:28:01.795Z,17.63
2019-03-03T17:30:32.147Z,25.37
2019-03-03T17:33:02.516Z,15.47
2019-03-03T17:35:32.630Z,18.85
2019-03-03T17:38:02.506Z,13.00
2019-03-03T17:40:32.283Z,17.67
2019-03-03T17:43:02.877Z,17.93
2019-03-03T17:45:33.219Z,15.72
2019-03-03T17:48:03.228Z,25.45
2019-03-03T17:50:33.709Z,12.40
2019-03-03T17:53:03.768Z,26.73
2019-03-03T17:55:35.170Z,19.25
2019-03-03T17:58:05.038Z,8.70
2019-03-03T18:00:36.957Z,14.20
2019-03-03T18:03:07.236Z,16.40
2019-03-03T18:05:37.134Z,20.97
2019-03-03T18:08:07.310Z,28.07
2019-03-03T18:10:37.492Z,15.27
2019-03-03T18:13:09.117Z,13.00
2019-03-03T18:15:39.674Z,24.80
2019-03-03T18:18:09.484Z,20.40
2019-03-03T18:20:39.616Z,9.30
2019-03-03T18:23:09.526Z,28.30
2019-03-03T18:25:39.594Z,17.23
2019-03-03T18:28:09.468Z,17.50
2019-03-03T18:30:40.338Z,17.83
2019-03-03T18:33:10.233Z,16.33
2019-03-03T18:35:40.273Z,16.97
2019-03-03T18:38:10.069Z,18.93
2019-03-03T18:40:41.455Z,10.43
2019-03-03T18:43:12.010Z,14.30
2019-03-03T18:45:42.232Z,16.90
2019-03-03T18:48:12.246Z,16.43
2019-03-03T18:50:41.854Z,16.67
2019-03-03T18:53:11.568Z,17.80
2019-03-03T18:55:41.893Z,18.83
2019-03-03T18:58:11.496Z,15.63
2019-03-03T19:00:42.595Z,12.17
2019-03-03T19:03:12.551Z,14.67
2019-03-03T19:05:42.482Z,9.33
2019-03-03T19:08:12.724Z,15.53
2019-03-03T19:10:42.715Z,12.47
2019-03-03T19:13:14.386Z,10.73
2019-03-03T19:15:44.375Z,14.57
2019-03-03T19:18:14.788Z,12.70
2019-03-03T19:20:45.129Z,18.77
2019-03-03T19:23:15.551Z,18.43
2019-03-03T19:25:45.625Z,18.47
2019-03-03T19:28:15.922Z,10.43
2019-03-03T19:30:46.141Z,15.30
2019-03-03T19:33:25.840Z,14.87
2019-03-03T19:35:56.248Z,16.12
2019-03-03T19:38:26.931Z,12.30
2019-03-03T19:40:58.438Z,15.20
2019-03-03T19:43:31.842Z,14.97
2019-03-03T19:46:05.997Z,16.67
2019-03-03T19:48:36.078Z,12.67
2019-03-03T19:51:06.599Z,15.70
2019-03-03T19:53:36.515Z,11.50
2019-03-03T19:56:06.475Z,8.27
2019-03-03T19:58:36.475Z,17.87
2019-03-03T20:01:07.427Z,10.13
2019-03-03T20:03:38.164Z,12.13
2019-03-03T20:06:08.746Z,16.37
2019-03-03T20:08:38.748Z,11.37
2019-03-03T20:11:10.596Z,9.07
2019-03-03T20:13:40.910Z,12.00
2019-03-03T20:16:11.269Z,7.97
2019-03-03T20:18:41.456Z,15.00
2019-03-03T20:21:11.168Z,7.10
2019-03-03T20:23:41.628Z,14.07
2019-03-03T20:26:11.750Z,11.33
2019-03-03T20:28:41.420Z,10.00
2019-03-03T20:31:11.355Z,10.70
2019-03-03T20:33:41.086Z,10.73
2019-03-03T20:36:10.875Z,11.27
2019-03-03T20:38:40.915Z,12.40
2019-03-03T20:41:11.271Z,11.00
2019-03-03T20:43:41.629Z,13.60
2019-03-03T20:46:14.507Z,11.70
2019-03-03T20:48:44.753Z,11.53
2019-03-03T20:51:15.229Z,15.83
2019-03-03T20:53:45.229Z,5.97
2019-03-03T20:56:15.112Z,20.73
2019-03-03T20:58:44.508Z,13.23
2019-03-03T21:01:14.928Z,7.67
2019-03-03T21:03:45.181Z,7.53
2019-03-03T21:06:16.230Z,13.93
2019-03-03T21:08:46.082Z,7.90
2019-03-03T21:11:16.309Z,8.77
2019-03-03T21:13:45.884Z,8.23
2019-03-03T21:16:15.945Z,4.57
2019-03-03T21:18:45.714Z,11.43
2019-03-03T21:21:15.154Z,11.37
2019-03-03T21:23:44.769Z,8.77
2019-03-03T21:26:14.480Z,7.60
2019-03-03T21:28:44.389Z,7.10
2019-03-03T21:31:14.087Z,8.93
2019-03-03T21:33:43.906Z,5.63
2019-03-03T21:36:13.506Z,10.60
2019-03-03T21:38:43.068Z,9.93
2019-03-03T21:41:12.819Z,9.83
2019-03-03T21:43:42.423Z,6.47
2019-03-03T21:46:12.243Z,7.17
2019-03-03T21:48:42.234Z,9.13
2019-03-03T21:51:11.748Z,10.13
2019-03-03T21:53:41.510Z,10.23
2019-03-03T21:56:11.383Z,15.33
2019-03-03T21:58:41.268Z,7.50
2019-03-03T22:01:11.515Z,7.87
2019-03-03T22:03:41.268Z,9.50
2019-03-03T22:06:10.721Z,15.67
2019-03-03T22:08:42.477Z,8.17
2019-03-03T22:11:11.981Z,14.43
2019-03-03T22:13:41.385Z,13.53
2019-03-03T22:16:10.989Z,11.27
2019-03-03T22:18:41.029Z,8.70
2019-03-03T22:21:10.983Z,9.73
2019-03-03T22:23:40.907Z,7.67
2019-03-03T22:26:10.426Z,3.87
2019-03-03T22:28:40.153Z,10.33
2019-03-03T22:31:09.707Z,6.50
2019-03-03T22:33:39.232Z,9.50
2019-03-03T22:36:08.924Z,5.47
2019-03-03T22:38:38.625Z,7.07
2019-03-03T22:41:08.312Z,7.70
2019-03-03T22:43:38.025Z,8.73
2019-03-03T22:46:07.844Z,4.00
2019-03-03T22:48:38.348Z,3.90
2019-03-03T22:51:08.269Z,5.00
2019-03-03T22:53:37.725Z,5.70
2019-03-03T22:56:07.490Z,5.43
2019-03-03T22:58:36.854Z,5.47
2019-03-03T23:01:14.755Z,5.43
2019-03-03T23:04:01.908Z,5.77
2019-03-03T23:06:52.725Z,5.80
2019-03-03T23:09:47.572Z,4.23
2019-03-03T23:12:43.065Z,4.90
2019-03-03T23:15:44.438Z,3.40
2019-03-03T23:18:47.026Z,11.13
2019-03-03T23:21:42.711Z,6.37
2019-03-03T23:24:53.629Z,6.70
2019-03-03T23:27:23.619Z,6.10
2019-03-03T23:29:53.320Z,13.00
2019-03-03T23:32:23.250Z,5.80
2019-03-03T23:34:53.989Z,7.80
2019-03-03T23:37:23.586Z,4.67
2019-03-03T23:39:53.923Z,4.83
2019-03-03T23:42:23.871Z,5.53
2019-03-03T23:44:53.761Z,8.07
2019-03-03T23:47:23.235Z,6.10
2019-03-03T23:49:53.393Z,5.07
2019-03-03T23:52:23.291Z,8.30
2019-03-03T23:54:53.026Z,10.67
2019-03-03T23:57:23.469Z,3.33
2019-03-03T23:59:53.313Z,3.77
